Time;durP1;ratioP1;P1;durP2;ratioP2;P2;SDS_P1;SDS_P2;PMS_P1;PMS_P2;Temp;Humidity;BMP_temperature;BMP_pressure;BME280_temperature;BME280_humidity;BME280_pressure;Samples;Min_cycle;Max_cycle;Signal;HPM_P1;HPM_P2
2022/05/03 00:01:37;;;;;;;5.88;3.25;;;10.30;99.90;;;;;;5012467;28;20073;-74
2022/05/03 00:04:12;;;;;;;8.55;3.33;;;10.30;99.90;;;;;;5015454;28;20022;-75
2022/05/03 00:06:56;;;;;;;;;;;10.30;99.90;;;;;;4999083;28;20550;-75
2022/05/03 00:09:30;;;;;;;10.48;3.67;;;10.20;99.90;;;;;;4999037;28;20412;-75
2022/05/03 00:12:03;;;;;;;7.22;3.90;;;10.20;99.90;;;;;;5016684;28;20121;-74
2022/05/03 00:14:44;;;;;;;9.85;4.32;;;10.20;99.90;;;;;;5016979;28;20034;-74
2022/05/03 00:17:14;;;;;;;11.48;3.78;;;10.10;99.90;;;;;;5016624;28;20493;-74
2022/05/03 00:19:40;;;;;;;9.50;3.50;;;10.10;99.90;;;;;;4998857;28;20022;-75
2022/05/03 00:22:06;;;;;;;8.23;4.47;;;10.00;99.90;;;;;;5016332;28;20378;-75
2022/05/03 00:24:33;;;;;;;8.38;3.90;;;10.00;99.90;;;;;;4998599;28;20066;-74
2022/05/03 00:26:59;;;;;;;9.98;3.97;;;9.90;99.90;;;;;;5015911;28;20526;-74
2022/05/03 00:29:25;;;;;;;6.22;3.80;;;9.90;99.90;;;;;;5018419;28;20030;-75
2022/05/03 00:31:51;;;;;;;9.95;4.18;;;9.90;99.90;;;;;;5034698;28;20069;-76
2022/05/03 00:34:18;;;;;;;14.15;4.40;;;9.90;99.90;;;;;;5040701;28;20061;-74
2022/05/03 00:36:44;;;;;;;10.88;4.38;;;9.90;99.90;;;;;;5040329;28;20037;-74
2022/05/03 00:39:09;;;;;;;7.45;4.20;;;9.90;99.90;;;;;;5024860;28;20037;-74
2022/05/03 00:41:43;;;;;;;6.20;3.80;;;9.90;99.90;;;;;;5005036;28;20022;-73
2022/05/03 00:45:01;;;;;;;7.30;4.32;;;9.80;99.90;;;;;;5021268;28;20018;-74
2022/05/03 00:47:38;;;;;;;9.50;4.07;;;9.80;99.90;;;;;;5021993;28;20026;-73
2022/05/03 00:50:09;;;;;;;6.10;3.88;;;9.80;99.90;;;;;;5021109;28;20283;-74
2022/05/03 00:52:55;;;;;;;9.05;4.38;;;9.70;99.90;;;;;;5020245;28;20462;-74
2022/05/03 00:55:45;;;;;;;10.05;4.43;;;9.70;99.90;;;;;;5019274;28;20026;-75
2022/05/03 00:58:38;;;;;;;10.18;4.50;;;9.70;99.90;;;;;;5015587;28;20030;-75
2022/05/03 01:01:09;;;;;;;8.50;4.45;;;9.60;99.90;;;;;;5015665;28;20034;-75
2022/05/03 01:03:47;;;;;;;6.30;4.07;;;9.60;99.90;;;;;;5016532;28;20490;-74
2022/05/03 01:06:26;;;;;;;6.97;4.20;;;9.60;99.90;;;;;;5020541;28;20501;-74
2022/05/03 01:09:06;;;;;;;6.95;4.10;;;9.60;99.90;;;;;;5018818;28;20475;-75
2022/05/03 01:11:50;;;;;;;6.95;3.80;;;9.60;99.90;;;;;;5015847;28;20061;-75
2022/05/03 01:14:53;;;;;;;10.70;4.65;;;9.60;99.90;;;;;;4997263;28;20068;-75
2022/05/03 01:17:34;;;;;;;9.70;3.92;;;9.60;99.90;;;;;;5014753;28;20057;-73
2022/05/03 01:20:06;;;;;;;8.68;4.70;;;9.60;99.90;;;;;;5015271;28;20079;-75
2022/05/03 01:22:55;;;;;;;7.18;4.57;;;9.60;99.90;;;;;;5015850;28;20022;-73
2022/05/03 01:25:51;;;;;;;9.20;3.92;;;9.60;99.90;;;;;;5016805;28;20022;-74
2022/05/03 01:28:32;;;;;;;7.05;4.25;;;9.60;99.90;;;;;;5022251;28;20032;-74
2022/05/03 01:31:03;;;;;;;8.73;4.10;;;9.50;99.90;;;;;;5021404;28;20028;-74
2022/05/03 01:33:49;;;;;;;8.32;4.75;;;9.50;99.90;;;;;;5015172;28;20038;-74
2022/05/03 01:36:27;;;;;;;7.65;4.40;;;9.50;99.90;;;;;;5014415;28;20079;-74
2022/05/03 01:39:05;;;;;;;10.50;5.20;;;9.50;99.90;;;;;;5014761;28;20443;-75
2022/05/03 01:41:48;;;;;;;9.65;6.55;;;9.50;99.90;;;;;;5014144;28;20025;-75
2022/05/03 01:44:38;;;;;;;8.20;5.38;;;9.40;99.90;;;;;;5015139;28;20371;-75
2022/05/03 01:47:22;;;;;;;14.48;6.38;;;9.40;99.90;;;;;;5013314;28;20030;-73
2022/05/03 01:53:01;;;;;;;16.85;6.40;;;9.30;99.90;;;;;;5014867;28;20511;-74
2022/05/03 01:55:59;;;;;;;13.85;7.25;;;9.30;99.90;;;;;;5015239;28;20034;-75
2022/05/03 01:59:07;;;;;;;14.10;7.53;;;9.30;99.90;;;;;;5013981;28;20097;-74
2022/05/03 02:01:55;;;;;;;12.20;7.50;;;9.30;99.90;;;;;;5014124;28;20537;-74
2022/05/03 02:04:59;;;;;;;15.80;7.13;;;9.30;99.90;;;;;;4996730;28;20037;-75
2022/05/03 02:07:55;;;;;;;14.45;7.65;;;9.30;99.90;;;;;;5013955;28;20022;-74
2022/05/03 02:10:38;;;;;;;12.43;7.97;;;9.30;99.90;;;;;;5014376;28;20021;-74
2022/05/03 02:13:27;;;;;;;18.60;8.20;;;9.20;99.90;;;;;;5013989;28;20530;-74
2022/05/03 02:16:09;;;;;;;15.45;8.02;;;9.20;99.90;;;;;;5013612;28;20112;-74
2022/05/03 02:18:56;;;;;;;16.33;8.52;;;9.20;99.90;;;;;;5013794;28;20097;-74
2022/05/03 02:21:30;;;;;;;16.75;8.20;;;9.10;99.90;;;;;;5013675;28;20467;-74
2022/05/03 02:24:11;;;;;;;;;;;9.10;99.90;;;;;;4996818;28;20032;-74
2022/05/03 02:26:38;;;;;;;12.95;7.50;;;9.00;99.90;;;;;;5012712;28;19909;-74
2022/05/03 02:29:10;;;;;;;17.50;8.63;;;9.00;99.90;;;;;;5013934;28;20052;-74
2022/05/03 02:31:51;;;;;;;14.77;8.10;;;9.00;99.90;;;;;;5013927;28;20493;-74
2022/05/03 02:34:29;;;;;;;16.30;8.65;;;8.90;99.90;;;;;;5013852;28;20115;-74
2022/05/03 02:36:59;;;;;;;13.57;8.38;;;8.90;99.90;;;;;;5013687;28;20025;-74
2022/05/03 02:39:28;;;;;;;12.77;7.88;;;8.90;99.90;;;;;;4996638;28;20418;-74
2022/05/03 02:41:59;;;;;;;15.15;8.73;;;8.80;99.90;;;;;;5013351;28;20411;-75
2022/05/03 02:44:29;;;;;;;17.48;8.93;;;8.80;99.90;;;;;;5014138;28;20439;-74
2022/05/03 02:47:07;;;;;;;14.20;8.93;;;8.70;99.90;;;;;;5013240;28;20042;-74
2022/05/03 02:50:08;;;;;;;16.63;8.52;;;8.70;99.90;;;;;;5013262;28;20547;-74
2022/05/03 02:52:56;;;;;;;14.98;8.60;;;8.70;99.90;;;;;;5004326;28;20161;-74
2022/05/03 02:55:50;;;;;;;16.23;9.02;;;8.70;99.90;;;;;;5013182;28;20174;-74
2022/05/03 02:58:54;;;;;;;17.10;8.93;;;8.70;99.90;;;;;;5013399;28;20026;-74
2022/05/03 03:01:48;;;;;;;16.27;9.10;;;8.60;99.90;;;;;;5013295;28;20493;-75
2022/05/03 03:04:44;;;;;;;14.98;9.23;;;8.60;99.90;;;;;;5013272;28;20030;-74
2022/05/03 03:07:18;;;;;;;17.70;9.20;;;8.60;99.90;;;;;;5012673;28;20088;-74
2022/05/03 03:09:48;;;;;;;15.43;9.35;;;8.60;99.90;;;;;;5013467;28;20104;-75
2022/05/03 03:12:41;;;;;;;15.07;9.30;;;8.60;99.90;;;;;;5013553;28;20033;-74
2022/05/03 03:15:09;;;;;;;16.25;9.68;;;8.60;99.90;;;;;;5012713;28;20038;-74
2022/05/03 03:17:43;;;;;;;18.98;10.30;;;8.60;99.90;;;;;;5012836;28;20057;-74
2022/05/03 03:20:10;;;;;;;18.17;9.95;;;8.70;99.90;;;;;;4995020;28;20093;-73
2022/05/03 03:22:41;;;;;;;15.68;9.43;;;8.60;99.90;;;;;;5012766;28;20061;-72
2022/05/03 03:25:12;;;;;;;18.50;10.20;;;8.60;99.90;;;;;;5012523;28;20034;-73
2022/05/03 03:27:39;;;;;;;18.30;10.43;;;8.60;99.90;;;;;;5012488;28;20029;-73
2022/05/03 03:30:10;;;;;;;17.33;10.48;;;8.60;99.90;;;;;;5012532;28;20029;-74
2022/05/03 03:32:40;;;;;;;19.60;11.07;;;8.60;99.90;;;;;;5011283;28;20025;-74
2022/05/03 03:35:06;;;;;;;18.73;11.18;;;8.60;99.90;;;;;;5012482;28;20026;-74
2022/05/03 03:37:34;;;;;;;21.05;10.70;;;8.60;99.90;;;;;;5012109;28;20022;-74
2022/05/03 03:40:00;;;;;;;17.50;10.68;;;8.60;99.90;;;;;;5012447;28;20057;-74
2022/05/03 03:42:27;;;;;;;17.17;11.18;;;8.60;99.90;;;;;;5012336;28;20022;-73
2022/05/03 03:44:53;;;;;;;17.92;10.73;;;8.60;99.90;;;;;;5011878;28;20029;-75
2022/05/03 03:47:19;;;;;;;19.27;9.95;;;8.60;99.90;;;;;;5012065;28;20049;-75
2022/05/03 03:49:46;;;;;;;23.95;11.15;;;8.50;99.90;;;;;;5012330;28;20030;-75
2022/05/03 03:52:13;;;;;;;16.35;10.20;;;8.50;99.90;;;;;;5012288;28;20058;-74
2022/05/03 03:54:40;;;;;;;19.50;11.15;;;8.50;99.90;;;;;;5019579;28;20025;-74
2022/05/03 03:57:07;;;;;;;20.73;10.43;;;8.50;99.90;;;;;;5014146;28;20026;-73
2022/05/03 03:59:33;;;;;;;23.95;11.32;;;8.50;99.90;;;;;;5011948;28;20022;-75
2022/05/03 04:02:00;;;;;;;18.80;9.88;;;8.50;99.90;;;;;;5011958;28;20026;-74
2022/05/03 04:04:30;;;;;;;21.23;10.55;;;8.50;99.90;;;;;;5012189;28;20029;-75
2022/05/03 04:06:56;;;;;;;19.08;9.75;;;8.60;99.90;;;;;;5012731;28;20037;-75
2022/05/03 04:09:22;;;;;;;16.27;9.77;;;8.70;99.90;;;;;;5012252;28;20026;-75
2022/05/03 04:11:47;;;;;;;20.90;9.75;;;8.80;99.90;;;;;;5011902;28;20041;-75
2022/05/03 04:14:14;;;;;;;17.02;10.23;;;8.80;99.90;;;;;;5012169;28;20083;-74
2022/05/03 04:16:40;;;;;;;17.60;10.05;;;8.90;99.90;;;;;;5012070;28;20117;-74
2022/05/03 04:19:06;;;;;;;17.33;9.38;;;8.90;99.90;;;;;;5013425;28;20026;-77
2022/05/03 04:21:32;;;;;;;16.90;9.05;;;9.00;99.90;;;;;;5013202;28;20030;-76
2022/05/03 04:23:58;;;;;;;18.02;10.02;;;9.00;99.90;;;;;;5013462;28;20092;-76
2022/05/03 04:26:23;;;;;;;19.25;9.27;;;9.10;99.90;;;;;;5012839;28;20029;-75
2022/05/03 04:28:49;;;;;;;13.65;9.27;;;9.10;99.90;;;;;;5012915;28;20076;-76
2022/05/03 04:31:14;;;;;;;16.40;9.60;;;9.20;99.90;;;;;;5012905;28;20494;-75
2022/05/03 04:33:40;;;;;;;16.80;9.52;;;9.30;99.90;;;;;;5012465;28;20034;-76
2022/05/03 04:36:05;;;;;;;13.98;9.05;;;9.30;99.90;;;;;;5012366;28;20475;-77
2022/05/03 04:38:31;;;;;;;18.30;9.68;;;9.40;99.90;;;;;;5012945;28;20033;-76
2022/05/03 04:41:00;;;;;;;20.10;9.32;;;9.40;99.90;;;;;;5018877;28;20032;-76
2022/05/03 04:43:27;;;;;;;14.65;9.23;;;9.50;99.90;;;;;;5002539;28;20497;-74
2022/05/03 04:45:52;;;;;;;19.77;10.80;;;9.60;99.90;;;;;;5026407;23;20489;-76
2022/05/03 04:48:18;;;;;;;21.55;10.02;;;9.60;99.90;;;;;;5034008;28;20080;-77
2022/05/03 04:50:44;;;;;;;19.23;9.73;;;9.70;99.90;;;;;;5036951;28;20041;-76
2022/05/03 04:53:09;;;;;;;16.80;9.98;;;9.80;99.90;;;;;;5037363;28;20025;-76
2022/05/03 04:55:39;;;;;;;18.95;10.77;;;9.90;99.90;;;;;;5037185;28;20033;-77
2022/05/03 04:58:04;;;;;;;18.02;10.13;;;9.90;99.90;;;;;;5037111;28;20037;-79
2022/05/03 05:00:30;;;;;;;18.45;11.63;;;9.80;99.90;;;;;;5037548;28;20090;-78
2022/05/03 05:02:56;;;;;;;19.85;10.60;;;9.80;99.90;;;;;;5037248;28;20029;-77
2022/05/03 05:05:21;;;;;;;19.23;10.30;;;9.80;99.90;;;;;;5036849;28;20049;-77
2022/05/03 05:07:47;;;;;;;17.33;10.43;;;9.80;99.90;;;;;;5036071;28;20021;-77
2022/05/03 05:10:26;;;;;;;20.60;10.88;;;9.80;99.90;;;;;;5036627;28;20026;-79
2022/05/03 05:12:53;;;;;;;36.83;12.25;;;9.80;99.90;;;;;;5036797;28;20022;-77
2022/05/03 05:15:18;;;;;;;25.70;11.15;;;9.80;99.90;;;;;;5036944;28;20109;-79
2022/05/03 05:17:44;;;;;;;23.17;10.75;;;9.80;99.90;;;;;;5036501;28;20061;-77
2022/05/03 05:20:10;;;;;;;25.65;10.88;;;9.80;99.90;;;;;;5039365;28;20042;-78
2022/05/03 05:22:36;;;;;;;39.70;12.38;;;9.80;99.90;;;;;;5039121;28;20022;-78
2022/05/03 05:25:02;;;;;;;24.17;10.95;;;9.80;99.90;;;;;;5042499;28;20018;-77
2022/05/03 05:27:27;;;;;;;18.80;11.43;;;9.90;99.90;;;;;;5044186;28;20029;-78
2022/05/03 05:29:53;;;;;;;20.50;11.90;;;9.90;99.90;;;;;;5058026;28;20024;-79
2022/05/03 05:32:19;;;;;;;21.05;11.45;;;9.90;99.90;;;;;;5056309;28;20022;-79
2022/05/03 05:34:44;;;;;;;21.48;12.57;;;9.90;99.90;;;;;;5058492;28;20040;-80
2022/05/03 05:37:10;;;;;;;20.00;12.07;;;10.00;99.90;;;;;;5051546;28;20397;-78
2022/05/03 05:39:35;;;;;;;20.00;12.52;;;10.00;99.90;;;;;;5038209;28;20481;-79
2022/05/03 05:42:01;;;;;;;29.08;13.80;;;10.00;99.90;;;;;;5039834;28;20033;-77
2022/05/03 05:44:28;;;;;;;29.05;14.82;;;10.20;99.90;;;;;;5039058;28;20124;-77
2022/05/03 05:46:53;;;;;;;28.90;13.98;;;10.10;99.90;;;;;;5041267;28;20035;-79
2022/05/03 05:49:20;;;;;;;37.80;19.42;;;10.00;99.90;;;;;;5039877;28;20394;-78
2022/05/03 05:51:45;;;;;;;30.55;16.35;;;10.10;99.90;;;;;;5035719;28;20068;-77
2022/05/03 05:54:11;;;;;;;27.20;14.90;;;10.10;99.90;;;;;;5036373;28;20033;-78
2022/05/03 05:56:37;;;;;;;31.15;16.77;;;10.10;99.90;;;;;;5037258;28;20060;-76
2022/05/03 05:59:03;;;;;;;26.70;15.48;;;10.20;99.90;;;;;;5036148;28;20031;-77
2022/05/03 06:01:41;;;;;;;26.30;13.55;;;10.30;99.90;;;;;;5035341;28;20041;-74
2022/05/03 06:04:07;;;;;;;25.45;13.75;;;10.20;99.90;;;;;;5036906;28;20449;-76
2022/05/03 06:06:35;;;;;;;26.73;14.35;;;10.30;99.90;;;;;;5037554;28;20041;-76
2022/05/03 06:09:04;;;;;;;39.60;15.00;;;10.30;99.90;;;;;;5038310;28;20025;-79
2022/05/03 06:11:30;;;;;;;25.42;14.88;;;10.30;99.90;;;;;;5035920;28;20037;-77
2022/05/03 06:13:56;;;;;;;26.25;14.52;;;10.30;99.90;;;;;;5035238;28;20025;-77
2022/05/03 06:16:21;;;;;;;25.27;14.82;;;10.40;99.90;;;;;;5037054;28;20112;-77
2022/05/03 06:18:47;;;;;;;25.73;14.82;;;10.60;99.90;;;;;;5037101;28;20064;-77
2022/05/03 06:21:13;;;;;;;24.63;14.77;;;10.60;99.90;;;;;;5034686;28;20542;-80
2022/05/03 06:23:39;;;;;;;26.73;15.10;;;10.80;99.90;;;;;;5035556;28;20025;-77
2022/05/03 06:26:05;;;;;;;33.08;16.13;;;10.90;99.90;;;;;;5038459;28;20067;-77
2022/05/03 06:28:32;;;;;;;32.08;15.73;;;10.90;99.90;;;;;;5037517;28;20045;-76
2022/05/03 06:30:57;;;;;;;40.30;20.73;;;11.00;99.90;;;;;;5035320;28;20040;-75
2022/05/03 06:33:23;;;;;;;34.42;17.13;;;11.00;99.90;;;;;;5035034;28;20112;-79
2022/05/03 06:35:48;;;;;;;27.10;15.25;;;11.00;99.90;;;;;;5035904;28;20037;-76
2022/05/03 06:38:14;;;;;;;33.10;17.15;;;11.10;99.90;;;;;;5040083;28;20528;-77
2022/05/03 06:40:39;;;;;;;32.83;17.75;;;11.10;99.90;;;;;;5042836;28;20033;-79
2022/05/03 06:43:06;;;;;;;27.35;16.05;;;11.20;99.90;;;;;;5058159;28;20086;-78
2022/05/03 06:45:31;;;;;;;65.28;33.70;;;11.20;99.90;;;;;;5057891;28;20037;-79
2022/05/03 06:47:57;;;;;;;32.97;18.85;;;11.30;99.90;;;;;;5059080;28;20085;-79
2022/05/03 06:50:22;;;;;;;34.78;17.25;;;11.30;99.90;;;;;;5059141;28;20073;-77
2022/05/03 06:52:48;;;;;;;29.77;17.35;;;11.40;99.90;;;;;;5057939;28;20021;-77
2022/05/03 06:55:14;;;;;;;29.73;17.48;;;11.40;99.90;;;;;;5058789;28;20010;-77
2022/05/03 06:57:40;;;;;;;29.35;17.02;;;11.30;99.90;;;;;;5058211;28;20498;-77
2022/05/03 07:00:06;;;;;;;34.72;19.17;;;11.40;99.90;;;;;;5057620;28;20021;-77
2022/05/03 07:02:33;;;;;;;27.33;17.23;;;11.50;99.90;;;;;;5054818;28;20029;-76
2022/05/03 07:05:00;;;;;;;30.35;18.17;;;11.50;99.90;;;;;;5036356;28;20021;-77
2022/05/03 07:07:26;;;;;;;31.83;17.10;;;11.60;99.90;;;;;;5036622;28;20544;-78
2022/05/03 07:09:52;;;;;;;32.17;17.23;;;11.70;99.90;;;;;;5041619;28;20052;-78
2022/05/03 07:12:18;;;;;;;42.22;18.60;;;11.70;99.90;;;;;;5042784;28;20506;-71
2022/05/03 07:14:43;;;;;;;41.70;19.42;;;11.80;99.90;;;;;;5035235;28;20320;-71
2022/05/03 07:17:09;;;;;;;37.17;18.58;;;11.70;99.90;;;;;;5035868;28;20021;-77
2022/05/03 07:25:03;;;;;;;150.03;28.70;;;11.90;99.90;;;;;;5034647;28;20032;-76
2022/05/03 07:27:29;;;;;;;34.63;19.08;;;11.80;99.90;;;;;;5033274;28;20021;-75
2022/05/03 07:29:55;;;;;;;34.88;19.23;;;11.80;99.90;;;;;;5034908;28;20025;-76
2022/05/03 07:32:20;;;;;;;46.63;21.20;;;11.90;99.90;;;;;;5034183;28;20033;-79
2022/05/03 07:34:47;;;;;;;32.85;18.33;;;11.90;99.90;;;;;;5035629;28;20104;-75
2022/05/03 07:37:12;;;;;;;36.28;19.08;;;12.00;99.90;;;;;;5036206;28;20037;-79
2022/05/03 07:39:39;;;;;;;31.42;17.80;;;12.00;99.90;;;;;;5033799;28;20026;-78
2022/05/03 07:42:05;;;;;;;40.63;19.25;;;12.10;99.90;;;;;;5033287;28;20541;-77
2022/05/03 07:44:30;;;;;;;44.13;20.20;;;12.10;99.90;;;;;;5034532;28;20410;-78
2022/05/03 07:46:57;;;;;;;44.83;19.02;;;12.00;99.90;;;;;;5036730;28;20037;-78
2022/05/03 07:49:22;;;;;;;37.70;18.90;;;12.00;99.90;;;;;;5037560;28;20445;-79
2022/05/03 07:51:48;;;;;;;33.88;17.63;;;12.00;99.90;;;;;;5036156;28;20036;-78
2022/05/03 07:54:14;;;;;;;45.42;19.40;;;12.10;99.90;;;;;;5037651;28;20029;-80
2022/05/03 07:56:40;;;;;;;36.17;17.90;;;12.10;99.90;;;;;;5039787;28;20044;-76
2022/05/03 07:59:09;;;;;;;38.22;18.83;;;12.00;99.90;;;;;;5046934;28;20029;-78
2022/05/03 08:01:35;;;;;;;32.92;16.98;;;12.10;99.90;;;;;;5038499;28;20102;-78
2022/05/03 08:04:01;;;;;;;33.40;17.83;;;12.10;99.90;;;;;;5034755;28;20036;-76
2022/05/03 08:06:27;;;;;;;29.10;17.27;;;12.10;99.90;;;;;;5036680;28;20022;-77
2022/05/03 08:08:53;;;;;;;31.85;16.73;;;12.20;99.90;;;;;;5034947;28;20537;-76
2022/05/03 08:11:18;;;;;;;36.92;17.73;;;12.20;99.90;;;;;;5034231;28;20029;-77
2022/05/03 08:13:45;;;;;;;40.97;17.08;;;12.20;99.90;;;;;;5033459;28;20083;-75
2022/05/03 08:16:21;;;;;;;36.80;17.10;;;12.20;99.90;;;;;;5033487;28;20025;-77
2022/05/03 08:18:48;;;;;;;36.08;19.40;;;12.30;99.90;;;;;;5034094;28;20030;-76
2022/05/03 08:21:14;;;;;;;47.60;17.73;;;12.30;99.90;;;;;;5033395;28;20479;-78
2022/05/03 08:23:40;;;;;;;32.80;17.48;;;12.40;99.90;;;;;;5033572;28;20083;-75
2022/05/03 08:26:05;;;;;;;56.97;26.77;;;12.40;99.90;;;;;;5037872;28;20018;-79
2022/05/03 08:28:31;;;;;;;39.92;15.25;;;12.50;99.90;;;;;;5038312;28;20036;-77
2022/05/03 08:30:58;;;;;;;34.00;14.98;;;12.60;99.90;;;;;;5037934;28;20029;-75
2022/05/03 08:33:24;;;;;;;38.28;12.70;;;12.70;99.90;;;;;;5037094;28;20481;-76
2022/05/03 08:35:49;;;;;;;31.25;10.20;;;12.80;99.90;;;;;;5035925;28;20021;-78
2022/05/03 08:43:46;;;;;;;35.28;7.80;;;13.20;99.90;;;;;;5017542;28;20021;-77
2022/05/03 08:46:12;;;;;;;27.38;5.93;;;13.50;99.90;;;;;;5014398;28;20030;-75
2022/05/03 08:48:42;;;;;;;57.85;7.72;;;13.70;99.90;;;;;;5017053;28;20030;-76
2022/05/03 08:51:14;;;;;;;38.03;7.10;;;13.80;99.90;;;;;;5017526;28;20026;-74
2022/05/03 08:53:40;;;;;;;34.13;8.43;;;14.00;99.90;;;;;;5033022;28;20032;-77
2022/05/03 08:56:06;;;;;;;42.92;8.95;;;14.10;99.90;;;;;;5014879;28;20463;-76
2022/05/03 08:58:32;;;;;;;35.13;7.25;;;14.10;99.90;;;;;;5016733;28;20112;-78
2022/05/03 09:00:58;;;;;;;33.58;7.07;;;14.10;99.90;;;;;;5016628;28;20101;-76
2022/05/03 09:03:24;;;;;;;21.30;6.38;;;14.30;99.90;;;;;;5016376;28;20029;-77
2022/05/03 09:05:52;;;;;;;19.65;6.32;;;14.50;99.90;;;;;;5031572;28;20026;-76
2022/05/03 09:08:23;;;;;;;20.88;6.88;;;14.70;99.90;;;;;;5016582;28;20029;-75
2022/05/03 09:10:49;;;;;;;28.70;6.88;;;14.90;99.90;;;;;;5016261;28;20026;-75
2022/05/03 09:13:26;;;;;;;25.33;6.53;;;15.00;99.90;;;;;;5016499;28;20049;-76
2022/05/03 09:15:56;;;;;;;25.48;6.03;;;15.20;99.90;;;;;;5016384;28;20479;-76
2022/05/03 09:18:27;;;;;;;20.58;5.95;;;15.50;99.90;;;;;;5015907;28;20037;-76
2022/05/03 09:23:53;;;;;;;27.23;6.03;;;15.80;99.90;;;;;;5015522;28;20110;-76
2022/05/03 09:26:28;;;;;;;24.77;5.47;;;15.80;99.90;;;;;;5016027;28;20022;-77
2022/05/03 09:29:08;;;;;;;18.65;4.65;;;15.90;99.90;;;;;;5016668;28;20060;-74
2022/05/03 09:31:39;;;;;;;16.63;4.30;;;15.90;99.90;;;;;;5016247;28;20037;-76
2022/05/03 09:34:19;;;;;;;18.20;4.55;;;16.10;99.90;;;;;;5016676;28;20025;-79
2022/05/03 09:36:49;;;;;;;37.13;5.20;;;16.30;99.90;;;;;;5015578;28;20030;-78
2022/05/03 09:39:30;;;;;;;18.33;3.80;;;16.50;99.90;;;;;;5015863;28;20025;-75
2022/05/03 09:42:16;;;;;;;25.65;4.35;;;16.60;99.90;;;;;;5027406;28;20024;-77
2022/05/03 09:44:50;;;;;;;12.70;4.00;;;16.60;99.90;;;;;;5014468;28;20483;-75
2022/05/03 09:47:16;;;;;;;;;;;16.70;99.90;;;;;;5017331;28;20029;-77
2022/05/03 09:49:43;;;;;;;15.60;3.78;;;16.50;99.90;;;;;;5020877;28;19952;-75
2022/05/03 09:52:29;;;;;;;15.38;3.78;;;16.60;99.90;;;;;;5016771;28;20110;-75
2022/05/03 09:55:03;;;;;;;21.25;4.00;;;16.80;99.90;;;;;;5016381;28;20076;-77
2022/05/03 09:57:31;;;;;;;14.15;3.63;;;16.90;99.90;;;;;;5017205;28;20022;-76
2022/05/03 09:59:57;;;;;;;14.48;3.17;;;17.00;99.90;;;;;;5015477;28;20490;-77
2022/05/03 10:02:26;;;;;;;15.88;3.38;;;17.10;99.90;;;;;;5016931;28;20471;-77
2022/05/03 10:04:53;;;;;;;16.50;3.90;;;17.30;99.90;;;;;;5015950;28;20030;-76
2022/05/03 10:07:20;;;;;;;21.63;3.97;;;17.40;99.90;;;;;;5015708;28;20037;-76
2022/05/03 10:09:46;;;;;;;14.13;3.10;;;17.50;99.90;;;;;;5016283;28;20072;-76
2022/05/03 10:12:13;;;;;;;22.83;3.60;;;17.60;99.90;;;;;;5015228;28;20045;-76
2022/05/03 10:14:40;;;;;;;17.25;3.53;;;17.40;99.90;;;;;;5015351;28;20125;-79
2022/05/03 10:22:46;;;;;;;19.90;3.38;;;17.40;99.90;;;;;;5018499;28;20076;-76
2022/05/03 10:25:11;;;;;;;20.25;3.70;;;17.40;99.90;;;;;;5025320;28;20463;-76
2022/05/03 10:27:59;;;;;;;17.45;4.18;;;17.30;99.90;;;;;;5031421;28;20050;-76
2022/05/03 10:30:28;;;;;;;15.07;3.25;;;16.60;99.90;;;;;;5017488;28;20062;-74
2022/05/03 10:33:24;;;;;;;13.90;3.42;;;16.60;99.90;;;;;;5016711;28;20018;-76
2022/05/03 10:35:51;;;;;;;18.33;3.70;;;16.60;99.90;;;;;;5016599;28;20028;-75
2022/05/03 10:38:34;;;;;;;15.23;3.17;;;16.80;99.90;;;;;;5015305;28;20088;-77
2022/05/03 10:40:59;;;;;;;15.60;2.70;;;16.70;99.90;;;;;;5017308;28;20360;-76
2022/05/03 10:43:27;;;;;;;13.27;2.72;;;16.80;99.90;;;;;;5016230;28;20025;-76
2022/05/03 10:45:58;;;;;;;11.40;2.90;;;16.70;99.90;;;;;;5016541;28;20033;-76
2022/05/03 10:48:34;;;;;;;13.73;3.60;;;16.70;99.90;;;;;;5017748;28;20026;-75
2022/05/03 10:51:04;;;;;;;34.80;7.28;;;16.90;99.90;;;;;;5020889;28;20018;-75
2022/05/03 10:53:34;;;;;;;20.70;3.38;;;17.10;99.90;;;;;;5020905;28;20074;-76
2022/05/03 10:56:04;;;;;;;15.93;3.50;;;17.30;99.90;;;;;;5019159;28;20125;-76
2022/05/03 10:58:33;;;;;;;11.93;3.00;;;17.50;99.90;;;;;;5020195;28;20028;-75
2022/05/03 11:01:23;;;;;;;13.40;3.28;;;17.70;99.90;;;;;;5014290;28;20018;-75
2022/05/03 11:03:51;;;;;;;13.20;2.42;;;17.50;99.90;;;;;;5021487;28;20018;-78
2022/05/03 11:06:18;;;;;;;22.42;3.00;;;17.30;99.90;;;;;;5036757;28;20068;-75
2022/05/03 11:09:08;;;;;;;22.30;4.15;;;17.50;99.90;;;;;;5037055;28;20049;-76
2022/05/03 11:11:42;;;;;;;26.15;3.25;;;17.50;99.90;;;;;;5038034;28;20025;-75
2022/05/03 11:14:24;;;;;;;14.98;3.60;;;17.20;99.90;;;;;;5038630;28;20006;-76
2022/05/03 11:16:51;;;;;;;18.85;3.58;;;17.20;99.90;;;;;;5038572;28;20017;-74
2022/05/03 11:19:21;;;;;;;21.88;3.30;;;17.00;99.90;;;;;;5037662;28;20052;-77
2022/05/03 11:21:48;;;;;;;13.40;3.72;;;17.00;99.90;;;;;;5032418;28;20090;-75
2022/05/03 11:24:21;;;;;;;20.90;3.38;;;17.30;99.90;;;;;;5037943;28;20014;-75
2022/05/03 11:26:51;;;;;;;15.55;3.33;;;17.60;99.90;;;;;;5028398;28;20494;-75
2022/05/03 11:29:18;;;;;;;21.88;6.72;;;17.80;99.90;;;;;;5022894;28;20025;-76
2022/05/03 11:31:49;;;;;;;12.70;2.83;;;17.90;99.90;;;;;;5020598;28;20058;-76
2022/05/03 11:34:15;;;;;;;16.88;3.80;;;17.90;99.40;;;;;;5015296;28;20026;-76
2022/05/03 11:36:42;;;;;;;24.42;3.58;;;18.00;99.90;;;;;;5015222;28;20564;-75
2022/05/03 11:39:09;;;;;;;14.45;3.00;;;18.20;99.40;;;;;;5015876;28;20033;-76
2022/05/03 11:41:37;;;;;;;15.27;2.97;;;18.20;98.20;;;;;;5014559;28;20017;-75
2022/05/03 11:44:03;;;;;;;21.80;3.55;;;18.30;98.00;;;;;;5012833;28;20054;-76
2022/05/03 11:46:29;;;;;;;14.75;3.42;;;18.40;97.80;;;;;;5032992;28;20025;-75
2022/05/03 11:49:00;;;;;;;17.52;3.78;;;18.40;97.90;;;;;;5034930;28;20108;-75
2022/05/03 11:57:11;;;;;;;14.55;3.83;;;18.10;97.50;;;;;;5034524;28;20070;-75
2022/05/03 11:59:39;;;;;;;15.93;2.63;;;18.10;97.50;;;;;;5035144;28;20060;-76
2022/05/03 12:02:21;;;;;;;13.48;3.13;;;18.10;97.30;;;;;;5034951;28;20204;-77
2022/05/03 12:05:06;;;;;;;18.00;3.88;;;18.10;97.30;;;;;;5033931;28;20475;-76
2022/05/03 12:07:35;;;;;;;17.70;3.75;;;17.70;97.90;;;;;;5033945;28;20471;-76
2022/05/03 12:10:01;;;;;;;19.75;2.80;;;17.90;98.00;;;;;;5034627;28;20136;-76
2022/05/03 12:12:45;;;;;;;17.73;3.00;;;17.90;97.00;;;;;;5033783;28;20085;-76
2022/05/03 12:15:14;;;;;;;17.25;3.58;;;17.90;96.20;;;;;;5032584;28;20060;-76
2022/05/03 12:17:52;;;;;;;16.90;2.85;;;17.80;96.50;;;;;;5034151;28;20478;-75
2022/05/03 12:20:18;;;;;;;13.48;3.70;;;17.90;96.40;;;;;;5033863;28;20029;-75
2022/05/03 12:22:44;;;;;;;22.35;3.97;;;17.90;96.40;;;;;;5033987;28;20036;-76
2022/05/03 12:25:09;;;;;;;30.60;4.47;;;17.90;96.40;;;;;;5038124;28;20022;-76
2022/05/03 12:27:35;;;;;;;13.63;3.25;;;17.80;96.00;;;;;;5034809;28;20030;-74
2022/05/03 12:30:09;;;;;;;21.30;4.07;;;17.80;96.10;;;;;;5034227;28;20030;-76
2022/05/03 12:32:35;;;;;;;17.15;4.10;;;17.80;96.40;;;;;;5034232;28;20018;-76
2022/05/03 12:35:02;;;;;;;20.55;4.43;;;18.00;96.00;;;;;;5034342;28;20040;-76
2022/05/03 12:37:28;;;;;;;19.92;4.00;;;18.00;95.90;;;;;;5032975;28;20028;-75
2022/05/03 12:40:01;;;;;;;17.25;4.38;;;18.30;95.50;;;;;;5035059;28;20536;-76
2022/05/03 12:42:26;;;;;;;22.95;3.53;;;18.50;95.10;;;;;;5035476;28;20040;-76
2022/05/03 12:44:57;;;;;;;16.38;3.20;;;18.80;94.40;;;;;;5035458;28;20037;-77
2022/05/03 12:47:23;;;;;;;21.80;3.95;;;18.90;93.90;;;;;;5034636;28;20398;-75
2022/05/03 12:49:49;;;;;;;21.45;3.33;;;19.00;93.20;;;;;;5033714;28;20025;-75
2022/05/03 12:52:16;;;;;;;19.05;4.97;;;18.90;93.00;;;;;;5033511;28;20532;-76
2022/05/03 12:54:43;;;;;;;14.02;3.22;;;19.00;93.50;;;;;;5033530;28;20040;-75
2022/05/03 12:59:55;;;;;;;16.98;3.45;;;19.70;92.50;;;;;;5033872;28;20052;-76
2022/05/03 13:02:21;;;;;;;16.67;3.17;;;20.20;91.50;;;;;;5033545;28;20108;-75
2022/05/03 13:04:47;;;;;;;15.98;3.00;;;20.70;87.40;;;;;;5033675;28;20087;-74
2022/05/03 13:07:13;;;;;;;17.08;4.00;;;21.40;85.90;;;;;;5033551;28;20025;-75
2022/05/03 13:09:39;;;;;;;16.45;2.88;;;21.90;81.90;;;;;;5033161;28;20025;-76
2022/05/03 13:12:05;;;;;;;11.70;3.00;;;22.70;78.70;;;;;;5037249;28;20576;-76
2022/05/03 13:14:31;;;;;;;24.90;4.97;;;23.20;75.60;;;;;;5036472;28;20124;-75
2022/05/03 13:16:58;;;;;;;31.23;7.65;;;23.80;72.90;;;;;;5036053;28;20045;-76
2022/05/03 13:19:24;;;;;;;41.97;19.58;;;24.30;69.50;;;;;;5036790;28;20506;-74
2022/05/03 13:21:51;;;;;;;12.27;2.90;;;;;;;;;;5038103;28;20025;-75
2022/05/03 13:24:17;;;;;;;15.38;2.80;;;25.60;61.60;;;;;;5037039;28;20022;-78
2022/05/03 13:26:42;;;;;;;13.30;3.20;;;25.80;58.20;;;;;;5037765;28;20029;-77
2022/05/03 13:29:19;;;;;;;20.13;3.25;;;25.80;56.50;;;;;;5036995;28;20056;-76